WADDWALL

Guest
Details From WADD - Denpasar Ngurah Rai Intl
To WALL - Balikpapan/Sepinggan
Flight Number -
Tags decoded
Created
Modified
Stats Distance 726 nm / 1,345 km
Max Altitude 0 ft / 0 m
Waypoints 4
Social Downloads 1
Likes 0
Share VATSIM

Download

Looking for another format? Having issues loading an existing format? Contact us
Advertisement - Login to hide

Notes

Requested: WADD PEDE2A LIPOT REBOL CHARLI WALL Unmatched points: PEDE2A CHARLI

Route

WADD LIPOT REBOL WALL

ID Type Via Altitude Latitude Longitude Leg Dist Tot Dist Heading (true) Name
O WADD APT - 0 ft / 0 m -8.74817˚ 115.16717˚ - 0 nm - Denpasar Ngurah Rai Intl
LIPOT FIX - 0 ft / 0 m -6.68089˚ 117.62993˚ 192 nm 192 nm 50° / 50° -
REBOL FIX - 0 ft / 0 m -3.77000˚ 113.72500˚ 291 nm 483 nm 307° / 307° -
O WALL APT - 0 ft / 0 m -1.26827˚ 116.89448˚ 242 nm 726 nm 52° / 52° Balikpapan/Sepinggan

Altitude Profile

Advertisement - Login to hide

Weather


0- 5 10 15 20 25 30 35+ Temperature / ° C

Clouds and Precipitation
Forecast for 2017-12-13 00:00 UTC. Updated 21 minutes ago

Ground ~20,000 ft ~40,000 ft Winds

WADD

Details ICAO WADD (DPS)
Name Denpasar Ngurah Rai Intl
Region Indonesia
Timezone Asia/Makassar (UTC+8.0)
Stats Elevation 14 ft / 4 m (AMSL)
Location -8.748169° 115.167174°
Runways 1
Magnetic Variation 1.056° E

METAR

WADD 121900Z 25003KT 200V270 5000 -TSRA FEW013CB BKN014 25/25 Q1009 TEMPO TL2000 3000 TSRA RMK CB OVER THE FIELD

Decode

TAF

TAF AMD TAF AMD WADD 121710Z 1218/1318 VRB05KT 9999 SCT016 TEMPO 1218/1222 5000 TSRA FEW013CB BKN013 BECMG 1223/1301 26010KT

Decode

Departure Runways

ID Width Length Bearing (true) Bearing (mag) Surface Threshold Offset Overrun Length
09 148 ft / 45 m 9,779 ft / 2,981 m 87.71° 86.65° Asphalt 121 ft / 37 m 75 ft / 23 m
27 148 ft / 45 m 9,779 ft / 2,981 m 267.70° 266.64° Asphalt 0 ft / 0 m 197 ft / 60 m

WALL

Details ICAO WALL (BPN)
Name Balikpapan/Sepinggan
Region Indonesia
Timezone Asia/Makassar (UTC+8.0)
Stats Elevation 12 ft / 4 m (AMSL)
Location -1.268272° 116.894478°
Runways 1
Magnetic Variation 0.474° E

METAR

WALL 121900Z 23008KT 9000 FEW020 26/24 Q1008 NOSIG

Decode

TAF

Not found

Destination Runways

ID Width Length Bearing (true) Bearing (mag) Surface Threshold Offset Overrun Length
07 148 ft / 45 m 8,188 ft / 2,496 m 66.97° 66.50° Asphalt 0 ft / 0 m 197 ft / 60 m
25 148 ft / 45 m 8,188 ft / 2,496 m 246.97° 246.50° Asphalt 0 ft / 0 m 197 ft / 60 m

Approach Navaids

Runway Type Ident Frequency Range Bearing (true) Bearing (mag) Slope Elevation
25 Localiser IBPN 110.90 MHz 18 nm / 33 km 247.07° 246.59° - 12 ft / 4 m (AMSL)
25 Glidescope IBPN 110.90 MHz 10 nm / 19 km 246.97° 246.50° 3.00° 12 ft / 4 m (AMSL)

Popular Alternatives